sensor_id;sensor_type;location;lat;lon;timestamp;temperature;humidity
34927;DHT22;21132;48.308;14.274;2023-03-18T00:01:59;9.90;44.90
34927;DHT22;21132;48.308;14.274;2023-03-18T00:04:26;9.90;44.60
34927;DHT22;21132;48.308;14.274;2023-03-18T00:06:53;9.80;44.60
34927;DHT22;21132;48.308;14.274;2023-03-18T00:09:19;9.80;44.20
34927;DHT22;21132;48.308;14.274;2023-03-18T00:11:45;9.80;44.30
34927;DHT22;21132;48.308;14.274;2023-03-18T00:14:11;9.70;44.30
34927;DHT22;21132;48.308;14.274;2023-03-18T00:16:37;9.70;44.70
34927;DHT22;21132;48.308;14.274;2023-03-18T00:19:03;9.70;44.70
34927;DHT22;21132;48.308;14.274;2023-03-18T00:21:30;9.70;44.30
34927;DHT22;21132;48.308;14.274;2023-03-18T00:23:56;9.70;44.60
34927;DHT22;21132;48.308;14.274;2023-03-18T00:26:24;9.60;43.90
34927;DHT22;21132;48.308;14.274;2023-03-18T00:28:51;9.60;43.90
34927;DHT22;21132;48.308;14.274;2023-03-18T00:31:17;9.60;43.90
34927;DHT22;21132;48.308;14.274;2023-03-18T00:33:43;9.70;43.90
34927;DHT22;21132;48.308;14.274;2023-03-18T00:36:11;9.70;44.30
34927;DHT22;21132;48.308;14.274;2023-03-18T00:38:44;9.60;45.20
34927;DHT22;21132;48.308;14.274;2023-03-18T00:41:12;9.60;44.90
34927;DHT22;21132;48.308;14.274;2023-03-18T00:43:42;9.60;44.60
34927;DHT22;21132;48.308;14.274;2023-03-18T00:46:25;9.60;44.50
34927;DHT22;21132;48.308;14.274;2023-03-18T00:48:53;9.60;44.20
34927;DHT22;21132;48.308;14.274;2023-03-18T00:51:21;9.60;43.90
34927;DHT22;21132;48.308;14.274;2023-03-18T00:53:49;9.60;43.80
34927;DHT22;21132;48.308;14.274;2023-03-18T00:56:18;9.60;43.90
34927;DHT22;21132;48.308;14.274;2023-03-18T00:58:46;9.60;44.10
34927;DHT22;21132;48.308;14.274;2023-03-18T01:01:12;9.60;44.40
34927;DHT22;21132;48.308;14.274;2023-03-18T01:03:39;9.60;44.30
34927;DHT22;21132;48.308;14.274;2023-03-18T01:06:14;9.60;44.40
34927;DHT22;21132;48.308;14.274;2023-03-18T01:08:40;9.50;44.70
34927;DHT22;21132;48.308;14.274;2023-03-18T01:11:08;9.50;44.80
34927;DHT22;21132;48.308;14.274;2023-03-18T01:13:35;9.50;44.70
34927;DHT22;21132;48.308;14.274;2023-03-18T01:16:03;9.50;44.60
34927;DHT22;21132;48.308;14.274;2023-03-18T01:18:29;9.50;44.40
34927;DHT22;21132;48.308;14.274;2023-03-18T01:20:55;9.50;44.60
34927;DHT22;21132;48.308;14.274;2023-03-18T01:23:21;9.40;44.60
34927;DHT22;21132;48.308;14.274;2023-03-18T01:25:48;9.40;44.70
34927;DHT22;21132;48.308;14.274;2023-03-18T01:28:14;9.40;45.00
34927;DHT22;21132;48.308;14.274;2023-03-18T01:30:40;9.40;44.70
34927;DHT22;21132;48.308;14.274;2023-03-18T01:33:07;9.40;44.80
34927;DHT22;21132;48.308;14.274;2023-03-18T01:35:34;9.30;45.10
34927;DHT22;21132;48.308;14.274;2023-03-18T01:38:01;9.30;45.00
34927;DHT22;21132;48.308;14.274;2023-03-18T01:40:34;9.20;45.00
34927;DHT22;21132;48.308;14.274;2023-03-18T01:43:20;9.20;45.70
34927;DHT22;21132;48.308;14.274;2023-03-18T01:45:52;9.10;45.70
34927;DHT22;21132;48.308;14.274;2023-03-18T01:48:21;9.10;45.60
34927;DHT22;21132;48.308;14.274;2023-03-18T01:50:54;9.10;45.80
34927;DHT22;21132;48.308;14.274;2023-03-18T01:53:21;9.00;46.20
34927;DHT22;21132;48.308;14.274;2023-03-18T01:55:49;9.00;45.90
34927;DHT22;21132;48.308;14.274;2023-03-18T01:58:20;8.90;46.10
34927;DHT22;21132;48.308;14.274;2023-03-18T02:01:30;8.90;46.10
34927;DHT22;21132;48.308;14.274;2023-03-18T02:03:59;8.80;46.10
34927;DHT22;21132;48.308;14.274;2023-03-18T02:06:25;8.80;46.40
34927;DHT22;21132;48.308;14.274;2023-03-18T02:08:51;8.70;46.40
34927;DHT22;21132;48.308;14.274;2023-03-18T02:11:18;8.70;45.90
34927;DHT22;21132;48.308;14.274;2023-03-18T02:13:45;8.70;45.80
34927;DHT22;21132;48.308;14.274;2023-03-18T02:16:27;8.60;45.70
34927;DHT22;21132;48.308;14.274;2023-03-18T02:18:56;8.60;45.80
34927;DHT22;21132;48.308;14.274;2023-03-18T02:24:27;8.50;45.60
34927;DHT22;21132;48.308;14.274;2023-03-18T02:27:24;8.50;46.00
34927;DHT22;21132;48.308;14.274;2023-03-18T02:29:53;8.50;45.70
34927;DHT22;21132;48.308;14.274;2023-03-18T02:32:25;8.50;45.80
34927;DHT22;21132;48.308;14.274;2023-03-18T02:34:52;8.40;45.80
34927;DHT22;21132;48.308;14.274;2023-03-18T02:37:18;8.40;46.20
34927;DHT22;21132;48.308;14.274;2023-03-18T02:39:44;8.30;47.10
34927;DHT22;21132;48.308;14.274;2023-03-18T02:42:13;8.30;46.60
34927;DHT22;21132;48.308;14.274;2023-03-18T02:44:45;8.30;46.90
34927;DHT22;21132;48.308;14.274;2023-03-18T02:47:17;8.30;46.60
34927;DHT22;21132;48.308;14.274;2023-03-18T02:49:45;8.20;47.00
34927;DHT22;21132;48.308;14.274;2023-03-18T02:52:11;8.20;47.00
34927;DHT22;21132;48.308;14.274;2023-03-18T02:54:37;8.20;46.90
34927;DHT22;21132;48.308;14.274;2023-03-18T02:57:03;8.10;47.00
34927;DHT22;21132;48.308;14.274;2023-03-18T02:59:29;8.10;47.60
34927;DHT22;21132;48.308;14.274;2023-03-18T03:01:56;8.00;47.20
34927;DHT22;21132;48.308;14.274;2023-03-18T03:04:24;8.00;47.20
34927;DHT22;21132;48.308;14.274;2023-03-18T03:06:51;7.90;47.10
34927;DHT22;21132;48.308;14.274;2023-03-18T03:09:18;7.90;47.70
34927;DHT22;21132;48.308;14.274;2023-03-18T03:11:45;7.80;47.90
34927;DHT22;21132;48.308;14.274;2023-03-18T03:14:13;7.80;47.70
34927;DHT22;21132;48.308;14.274;2023-03-18T03:16:39;7.70;47.70
34927;DHT22;21132;48.308;14.274;2023-03-18T03:19:05;7.70;47.60
34927;DHT22;21132;48.308;14.274;2023-03-18T03:21:32;7.70;47.30
34927;DHT22;21132;48.308;14.274;2023-03-18T03:24:04;7.60;47.60
34927;DHT22;21132;48.308;14.274;2023-03-18T03:26:30;7.60;47.70
34927;DHT22;21132;48.308;14.274;2023-03-18T03:28:57;7.60;47.70
34927;DHT22;21132;48.308;14.274;2023-03-18T03:31:23;7.60;47.50
34927;DHT22;21132;48.308;14.274;2023-03-18T03:33:49;7.60;47.70
34927;DHT22;21132;48.308;14.274;2023-03-18T03:36:16;7.60;48.00
34927;DHT22;21132;48.308;14.274;2023-03-18T03:38:42;7.60;48.10
34927;DHT22;21132;48.308;14.274;2023-03-18T03:41:10;7.60;48.30
34927;DHT22;21132;48.308;14.274;2023-03-18T03:43:39;7.60;48.30
34927;DHT22;21132;48.308;14.274;2023-03-18T03:46:06;7.50;48.50
34927;DHT22;21132;48.308;14.274;2023-03-18T03:48:32;7.50;48.70
34927;DHT22;21132;48.308;14.274;2023-03-18T03:50:58;7.50;49.00
34927;DHT22;21132;48.308;14.274;2023-03-18T03:53:25;7.50;49.20
34927;DHT22;21132;48.308;14.274;2023-03-18T03:55:52;7.50;49.30
34927;DHT22;21132;48.308;14.274;2023-03-18T03:58:18;7.50;49.30
34927;DHT22;21132;48.308;14.274;2023-03-18T04:00:44;7.40;49.60
34927;DHT22;21132;48.308;14.274;2023-03-18T04:03:10;7.40;49.70
34927;DHT22;21132;48.308;14.274;2023-03-18T04:05:36;7.40;49.90
34927;DHT22;21132;48.308;14.274;2023-03-18T04:08:02;7.40;50.10
34927;DHT22;21132;48.308;14.274;2023-03-18T04:10:28;7.30;50.00
34927;DHT22;21132;48.308;14.274;2023-03-18T04:12:54;7.30;50.20
34927;DHT22;21132;48.308;14.274;2023-03-18T04:15:21;7.30;50.50
34927;DHT22;21132;48.308;14.274;2023-03-18T04:17:50;7.20;50.50
34927;DHT22;21132;48.308;14.274;2023-03-18T04:20:16;7.20;50.50
34927;DHT22;21132;48.308;14.274;2023-03-18T04:22:43;7.20;50.30
34927;DHT22;21132;48.308;14.274;2023-03-18T04:25:10;7.20;50.50
34927;DHT22;21132;48.308;14.274;2023-03-18T04:27:37;7.20;50.30
34927;DHT22;21132;48.308;14.274;2023-03-18T04:30:05;7.20;50.50
34927;DHT22;21132;48.308;14.274;2023-03-18T04:32:31;7.20;50.50
34927;DHT22;21132;48.308;14.274;2023-03-18T04:34:57;7.10;50.30
34927;DHT22;21132;48.308;14.274;2023-03-18T04:37:22;7.20;50.20
34927;DHT22;21132;48.308;14.274;2023-03-18T04:39:48;7.10;50.10
34927;DHT22;21132;48.308;14.274;2023-03-18T04:42:15;7.10;50.60
34927;DHT22;21132;48.308;14.274;2023-03-18T04:44:41;7.10;50.80
34927;DHT22;21132;48.308;14.274;2023-03-18T04:47:07;7.10;51.10
34927;DHT22;21132;48.308;14.274;2023-03-18T04:49:33;7.10;51.00
34927;DHT22;21132;48.308;14.274;2023-03-18T04:51:59;7.10;50.80
34927;DHT22;21132;48.308;14.274;2023-03-18T04:54:25;7.10;50.70
34927;DHT22;21132;48.308;14.274;2023-03-18T04:56:51;7.10;51.00
34927;DHT22;21132;48.308;14.274;2023-03-18T04:59:17;7.00;51.40
34927;DHT22;21132;48.308;14.274;2023-03-18T05:01:43;7.00;51.40
34927;DHT22;21132;48.308;14.274;2023-03-18T05:04:09;7.00;51.40
34927;DHT22;21132;48.308;14.274;2023-03-18T05:06:35;7.00;51.10
34927;DHT22;21132;48.308;14.274;2023-03-18T05:09:02;7.00;51.10
34927;DHT22;21132;48.308;14.274;2023-03-18T05:11:30;7.00;50.90
34927;DHT22;21132;48.308;14.274;2023-03-18T05:13:56;7.00;50.80
34927;DHT22;21132;48.308;14.274;2023-03-18T05:16:23;7.00;50.70
34927;DHT22;21132;48.308;14.274;2023-03-18T05:18:49;7.00;50.70
34927;DHT22;21132;48.308;14.274;2023-03-18T05:21:16;7.00;50.90
34927;DHT22;21132;48.308;14.274;2023-03-18T05:23:42;7.00;50.90
34927;DHT22;21132;48.308;14.274;2023-03-18T05:26:08;7.00;51.20
34927;DHT22;21132;48.308;14.274;2023-03-18T05:28:34;6.90;51.20
34927;DHT22;21132;48.308;14.274;2023-03-18T05:31:00;6.90;51.00
34927;DHT22;21132;48.308;14.274;2023-03-18T05:33:26;6.90;50.90
34927;DHT22;21132;48.308;14.274;2023-03-18T05:35:52;6.90;50.90
34927;DHT22;21132;48.308;14.274;2023-03-18T05:38:18;6.90;51.00
34927;DHT22;21132;48.308;14.274;2023-03-18T05:40:45;6.90;51.00
34927;DHT22;21132;48.308;14.274;2023-03-18T05:43:10;6.90;51.30
34927;DHT22;21132;48.308;14.274;2023-03-18T05:45:37;6.90;51.40
34927;DHT22;21132;48.308;14.274;2023-03-18T05:48:03;6.90;51.30
34927;DHT22;21132;48.308;14.274;2023-03-18T05:50:30;6.90;51.30
34927;DHT22;21132;48.308;14.274;2023-03-18T05:52:58;6.90;51.40
34927;DHT22;21132;48.308;14.274;2023-03-18T05:55:23;7.00;51.30
34927;DHT22;21132;48.308;14.274;2023-03-18T05:57:49;7.00;51.40
34927;DHT22;21132;48.308;14.274;2023-03-18T06:00:15;7.00;51.20
34927;DHT22;21132;48.308;14.274;2023-03-18T06:02:43;7.10;51.30
34927;DHT22;21132;48.308;14.274;2023-03-18T06:05:09;7.10;51.20
34927;DHT22;21132;48.308;14.274;2023-03-18T06:07:37;7.10;51.40
34927;DHT22;21132;48.308;14.274;2023-03-18T06:10:03;7.20;51.40
34927;DHT22;21132;48.308;14.274;2023-03-18T06:12:28;7.30;51.70
34927;DHT22;21132;48.308;14.274;2023-03-18T06:14:55;7.30;51.60
34927;DHT22;21132;48.308;14.274;2023-03-18T06:17:21;7.40;51.60
34927;DHT22;21132;48.308;14.274;2023-03-18T06:19:47;7.40;52.00
34927;DHT22;21132;48.308;14.274;2023-03-18T06:22:14;7.50;51.60
34927;DHT22;21132;48.308;14.274;2023-03-18T06:24:42;7.50;51.30
34927;DHT22;21132;48.308;14.274;2023-03-18T06:27:07;7.60;51.40
34927;DHT22;21132;48.308;14.274;2023-03-18T06:29:33;7.60;51.30
34927;DHT22;21132;48.308;14.274;2023-03-18T06:32:00;7.70;51.20
34927;DHT22;21132;48.308;14.274;2023-03-18T06:34:26;7.80;51.10
34927;DHT22;21132;48.308;14.274;2023-03-18T06:36:51;7.90;51.00
34927;DHT22;21132;48.308;14.274;2023-03-18T06:39:18;7.90;51.00
34927;DHT22;21132;48.308;14.274;2023-03-18T06:41:44;8.00;50.70
34927;DHT22;21132;48.308;14.274;2023-03-18T06:44:11;8.00;50.60
34927;DHT22;21132;48.308;14.274;2023-03-18T06:46:38;8.10;50.50
34927;DHT22;21132;48.308;14.274;2023-03-18T06:49:04;8.20;50.50
34927;DHT22;21132;48.308;14.274;2023-03-18T06:51:30;8.20;50.30
34927;DHT22;21132;48.308;14.274;2023-03-18T06:53:58;8.30;50.30
34927;DHT22;21132;48.308;14.274;2023-03-18T06:56:24;8.30;50.10
34927;DHT22;21132;48.308;14.274;2023-03-18T06:58:50;8.40;50.10
34927;DHT22;21132;48.308;14.274;2023-03-18T07:01:16;8.50;50.00
34927;DHT22;21132;48.308;14.274;2023-03-18T07:03:42;8.50;50.00
34927;DHT22;21132;48.308;14.274;2023-03-18T07:06:08;8.60;50.10
34927;DHT22;21132;48.308;14.274;2023-03-18T07:08:37;8.60;50.10
34927;DHT22;21132;48.308;14.274;2023-03-18T07:11:03;8.70;50.10
34927;DHT22;21132;48.308;14.274;2023-03-18T07:13:29;8.80;49.90
34927;DHT22;21132;48.308;14.274;2023-03-18T07:15:55;8.90;49.70
34927;DHT22;21132;48.308;14.274;2023-03-18T07:18:22;9.00;49.60
34927;DHT22;21132;48.308;14.274;2023-03-18T07:20:48;9.10;49.60
34927;DHT22;21132;48.308;14.274;2023-03-18T07:23:14;9.20;49.60
34927;DHT22;21132;48.308;14.274;2023-03-18T07:25:40;9.20;49.40
34927;DHT22;21132;48.308;14.274;2023-03-18T07:28:06;9.30;49.10
34927;DHT22;21132;48.308;14.274;2023-03-18T07:30:32;9.40;49.10
34927;DHT22;21132;48.308;14.274;2023-03-18T07:32:58;9.50;48.80
34927;DHT22;21132;48.308;14.274;2023-03-18T07:35:24;9.50;47.60
34927;DHT22;21132;48.308;14.274;2023-03-18T07:37:50;9.60;46.20
34927;DHT22;21132;48.308;14.274;2023-03-18T07:40:16;9.60;46.40
34927;DHT22;21132;48.308;14.274;2023-03-18T07:42:42;9.70;47.00
34927;DHT22;21132;48.308;14.274;2023-03-18T07:45:08;9.70;46.60
34927;DHT22;21132;48.308;14.274;2023-03-18T07:47:34;9.80;46.30
34927;DHT22;21132;48.308;14.274;2023-03-18T07:50:00;9.90;46.20
34927;DHT22;21132;48.308;14.274;2023-03-18T07:52:27;9.90;46.20
34927;DHT22;21132;48.308;14.274;2023-03-18T07:54:53;10.00;46.10
34927;DHT22;21132;48.308;14.274;2023-03-18T07:57:19;10.10;46.10
34927;DHT22;21132;48.308;14.274;2023-03-18T07:59:46;10.20;45.40
34927;DHT22;21132;48.308;14.274;2023-03-18T08:02:15;10.20;44.50
34927;DHT22;21132;48.308;14.274;2023-03-18T08:04:42;10.30;44.80
34927;DHT22;21132;48.308;14.274;2023-03-18T08:07:08;10.40;45.00
34927;DHT22;21132;48.308;14.274;2023-03-18T08:09:34;10.50;44.80
34927;DHT22;21132;48.308;14.274;2023-03-18T08:12:01;10.60;43.80
34927;DHT22;21132;48.308;14.274;2023-03-18T08:14:27;10.60;43.60
34927;DHT22;21132;48.308;14.274;2023-03-18T08:16:53;10.70;43.60
34927;DHT22;21132;48.308;14.274;2023-03-18T08:19:18;10.80;42.70
34927;DHT22;21132;48.308;14.274;2023-03-18T08:21:44;10.80;43.20
34927;DHT22;21132;48.308;14.274;2023-03-18T08:24:10;10.90;43.00
34927;DHT22;21132;48.308;14.274;2023-03-18T08:26:36;11.00;43.20
34927;DHT22;21132;48.308;14.274;2023-03-18T08:29:02;11.10;43.10
34927;DHT22;21132;48.308;14.274;2023-03-18T08:31:27;11.10;42.20
34927;DHT22;21132;48.308;14.274;2023-03-18T08:33:53;11.20;41.40
34927;DHT22;21132;48.308;14.274;2023-03-18T08:36:21;11.20;41.60
34927;DHT22;21132;48.308;14.274;2023-03-18T08:38:47;11.30;41.90
34927;DHT22;21132;48.308;14.274;2023-03-18T08:41:14;11.30;41.30
34927;DHT22;21132;48.308;14.274;2023-03-18T08:43:41;11.40;41.30
34927;DHT22;21132;48.308;14.274;2023-03-18T08:46:07;11.50;41.70
34927;DHT22;21132;48.308;14.274;2023-03-18T08:48:33;11.50;41.40
34927;DHT22;21132;48.308;14.274;2023-03-18T08:51:05;11.60;41.50
34927;DHT22;21132;48.308;14.274;2023-03-18T08:53:33;11.60;41.40
34927;DHT22;21132;48.308;14.274;2023-03-18T08:55:58;11.70;41.50
34927;DHT22;21132;48.308;14.274;2023-03-18T08:58:26;11.80;41.30
34927;DHT22;21132;48.308;14.274;2023-03-18T09:00:54;11.90;41.40
34927;DHT22;21132;48.308;14.274;2023-03-18T09:03:20;11.90;40.90
34927;DHT22;21132;48.308;14.274;2023-03-18T09:05:50;12.00;40.50
34927;DHT22;21132;48.308;14.274;2023-03-18T09:08:17;12.00;40.90
34927;DHT22;21132;48.308;14.274;2023-03-18T09:10:47;12.10;40.70
34927;DHT22;21132;48.308;14.274;2023-03-18T09:13:15;12.20;40.50
34927;DHT22;21132;48.308;14.274;2023-03-18T09:15:41;12.20;40.80
34927;DHT22;21132;48.308;14.274;2023-03-18T09:18:07;12.30;40.90
34927;DHT22;21132;48.308;14.274;2023-03-18T09:20:33;12.40;40.90
34927;DHT22;21132;48.308;14.274;2023-03-18T09:22:59;12.50;40.40
34927;DHT22;21132;48.308;14.274;2023-03-18T09:25:26;12.50;40.60
34927;DHT22;21132;48.308;14.274;2023-03-18T09:27:52;12.60;40.40
34927;DHT22;21132;48.308;14.274;2023-03-18T09:30:19;12.60;40.20
34927;DHT22;21132;48.308;14.274;2023-03-18T09:32:45;12.70;40.20
34927;DHT22;21132;48.308;14.274;2023-03-18T09:35:11;12.80;40.10
34927;DHT22;21132;48.308;14.274;2023-03-18T09:37:37;12.80;40.00
34927;DHT22;21132;48.308;14.274;2023-03-18T09:40:05;12.90;40.10
34927;DHT22;21132;48.308;14.274;2023-03-18T09:45:23;13.00;40.00
34927;DHT22;21132;48.308;14.274;2023-03-18T09:51:04;13.10;40.10
34927;DHT22;21132;48.308;14.274;2023-03-18T09:56:02;13.30;39.20
34927;DHT22;21132;48.308;14.274;2023-03-18T09:58:47;13.40;39.20
34927;DHT22;21132;48.308;14.274;2023-03-18T10:01:15;13.40;39.40
34927;DHT22;21132;48.308;14.274;2023-03-18T10:03:55;13.50;39.40
34927;DHT22;21132;48.308;14.274;2023-03-18T10:06:25;13.50;39.50
34927;DHT22;21132;48.308;14.274;2023-03-18T10:16:48;13.80;39.40
34927;DHT22;21132;48.308;14.274;2023-03-18T10:19:16;13.90;39.20
34927;DHT22;21132;48.308;14.274;2023-03-18T10:22:14;14.00;39.30
34927;DHT22;21132;48.308;14.274;2023-03-18T10:25:12;14.00;39.10
34927;DHT22;21132;48.308;14.274;2023-03-18T10:28:01;14.10;39.20
34927;DHT22;21132;48.308;14.274;2023-03-18T10:30:33;14.10;37.90
34927;DHT22;21132;48.308;14.274;2023-03-18T10:38:49;14.20;38.60
34927;DHT22;21132;48.308;14.274;2023-03-18T10:41:33;14.30;38.70
34927;DHT22;21132;48.308;14.274;2023-03-18T10:44:28;14.30;38.50
34927;DHT22;21132;48.308;14.274;2023-03-18T10:49:36;14.40;38.40
34927;DHT22;21132;48.308;14.274;2023-03-18T10:52:21;14.50;38.40
34927;DHT22;21132;48.308;14.274;2023-03-18T10:54:51;14.50;37.70
34927;DHT22;21132;48.308;14.274;2023-03-18T10:57:19;14.60;38.00
34927;DHT22;21132;48.308;14.274;2023-03-18T10:59:47;14.70;37.70
34927;DHT22;21132;48.308;14.274;2023-03-18T11:02:28;14.80;37.80
34927;DHT22;21132;48.308;14.274;2023-03-18T11:05:03;14.90;37.40
34927;DHT22;21132;48.308;14.274;2023-03-18T11:10:45;15.00;37.50
34927;DHT22;21132;48.308;14.274;2023-03-18T11:13:19;15.10;37.20
34927;DHT22;21132;48.308;14.274;2023-03-18T11:15:53;15.10;36.90
34927;DHT22;21132;48.308;14.274;2023-03-18T11:18:23;15.30;37.50
34927;DHT22;21132;48.308;14.274;2023-03-18T11:20:57;15.30;36.60
34927;DHT22;21132;48.308;14.274;2023-03-18T11:23:38;15.30;36.70
34927;DHT22;21132;48.308;14.274;2023-03-18T11:26:45;15.40;37.00
34927;DHT22;21132;48.308;14.274;2023-03-18T11:29:16;15.60;37.30
34927;DHT22;21132;48.308;14.274;2023-03-18T11:31:54;15.60;36.70
34927;DHT22;21132;48.308;14.274;2023-03-18T11:34:24;15.70;36.90
34927;DHT22;21132;48.308;14.274;2023-03-18T11:37:10;15.80;37.20
34927;DHT22;21132;48.308;14.274;2023-03-18T11:39:39;15.90;37.40
34927;DHT22;21132;48.308;14.274;2023-03-18T11:42:20;15.90;37.40
34927;DHT22;21132;48.308;14.274;2023-03-18T11:44:53;16.00;37.30
34927;DHT22;21132;48.308;14.274;2023-03-18T11:47:22;16.10;37.10
34927;DHT22;21132;48.308;14.274;2023-03-18T11:49:49;16.20;37.20
34927;DHT22;21132;48.308;14.274;2023-03-18T12:01:19;16.60;36.50
34927;DHT22;21132;48.308;14.274;2023-03-18T12:06:31;16.80;36.30
34927;DHT22;21132;48.308;14.274;2023-03-18T12:09:31;16.80;36.00
34927;DHT22;21132;48.308;14.274;2023-03-18T12:15:20;17.00;36.30
34927;DHT22;21132;48.308;14.274;2023-03-18T12:20:53;17.10;36.50
34927;DHT22;21132;48.308;14.274;2023-03-18T12:26:10;17.20;36.00
34927;DHT22;21132;48.308;14.274;2023-03-18T12:33:55;17.40;35.40
34927;DHT22;21132;48.308;14.274;2023-03-18T12:44:58;17.80;35.90
34927;DHT22;21132;48.308;14.274;2023-03-18T12:50:11;17.90;35.50
34927;DHT22;21132;48.308;14.274;2023-03-18T12:52:44;18.00;35.50
34927;DHT22;21132;48.308;14.274;2023-03-18T12:55:49;18.10;34.80
34927;DHT22;21132;48.308;14.274;2023-03-18T12:58:25;18.20;34.40
34927;DHT22;21132;48.308;14.274;2023-03-18T13:03:40;18.40;35.30
34927;DHT22;21132;48.308;14.274;2023-03-18T13:17:38;18.90;33.90
34927;DHT22;21132;48.308;14.274;2023-03-18T13:20:16;19.00;33.30
34927;DHT22;21132;48.308;14.274;2023-03-18T13:28:22;19.20;33.50
34927;DHT22;21132;48.308;14.274;2023-03-18T13:31:19;19.40;33.50
34927;DHT22;21132;48.308;14.274;2023-03-18T13:37:26;19.60;33.40
34927;DHT22;21132;48.308;14.274;2023-03-18T13:42:37;19.70;32.50
34927;DHT22;21132;48.308;14.274;2023-03-18T13:47:33;19.80;32.70
34927;DHT22;21132;48.308;14.274;2023-03-18T13:50:03;19.80;32.60
34927;DHT22;21132;48.308;14.274;2023-03-18T13:52:43;19.90;32.40
34927;DHT22;21132;48.308;14.274;2023-03-18T13:57:47;20.00;31.70
34927;DHT22;21132;48.308;14.274;2023-03-18T14:00:33;20.00;31.90
34927;DHT22;21132;48.308;14.274;2023-03-18T14:03:03;20.00;31.30
34927;DHT22;21132;48.308;14.274;2023-03-18T14:05:35;20.10;31.70
34927;DHT22;21132;48.308;14.274;2023-03-18T14:08:48;20.10;31.70
34927;DHT22;21132;48.308;14.274;2023-03-18T14:13:39;20.10;31.50
34927;DHT22;21132;48.308;14.274;2023-03-18T14:16:10;20.20;31.80
34927;DHT22;21132;48.308;14.274;2023-03-18T14:18:37;20.20;31.40
34927;DHT22;21132;48.308;14.274;2023-03-18T14:21:22;20.20;31.70
34927;DHT22;21132;48.308;14.274;2023-03-18T14:29:44;20.20;32.30
34927;DHT22;21132;48.308;14.274;2023-03-18T14:38:08;20.30;31.50
34927;DHT22;21132;48.308;14.274;2023-03-18T14:40:48;20.30;31.80
34927;DHT22;21132;48.308;14.274;2023-03-18T14:43:22;20.30;31.60
34927;DHT22;21132;48.308;14.274;2023-03-18T14:45:52;20.30;31.40
34927;DHT22;21132;48.308;14.274;2023-03-18T14:48:26;20.40;31.90
34927;DHT22;21132;48.308;14.274;2023-03-18T14:51:05;20.40;31.60
34927;DHT22;21132;48.308;14.274;2023-03-18T14:56:18;20.40;31.90
34927;DHT22;21132;48.308;14.274;2023-03-18T14:58:45;20.50;31.90
34927;DHT22;21132;48.308;14.274;2023-03-18T15:01:13;20.50;32.10
34927;DHT22;21132;48.308;14.274;2023-03-18T15:03:43;20.60;32.20
34927;DHT22;21132;48.308;14.274;2023-03-18T15:06:21;20.60;32.40
34927;DHT22;21132;48.308;14.274;2023-03-18T15:08:55;20.70;32.30
34927;DHT22;21132;48.308;14.274;2023-03-18T15:11:23;20.80;32.00
34927;DHT22;21132;48.308;14.274;2023-03-18T15:13:53;20.80;32.20
34927;DHT22;21132;48.308;14.274;2023-03-18T15:16:22;20.90;32.30
34927;DHT22;21132;48.308;14.274;2023-03-18T15:18:53;20.90;32.50
34927;DHT22;21132;48.308;14.274;2023-03-18T15:21:28;21.00;32.30
34927;DHT22;21132;48.308;14.274;2023-03-18T15:24:02;21.00;31.90
34927;DHT22;21132;48.308;14.274;2023-03-18T15:26:40;21.10;31.80
34927;DHT22;21132;48.308;14.274;2023-03-18T15:29:31;21.10;31.70
34927;DHT22;21132;48.308;14.274;2023-03-18T15:32:31;21.20;31.70
34927;DHT22;21132;48.308;14.274;2023-03-18T15:35:12;21.30;31.80
34927;DHT22;21132;48.308;14.274;2023-03-18T15:37:44;21.30;31.40
34927;DHT22;21132;48.308;14.274;2023-03-18T15:45:42;21.40;30.00
34927;DHT22;21132;48.308;14.274;2023-03-18T15:48:32;21.40;30.10
34927;DHT22;21132;48.308;14.274;2023-03-18T15:51:02;21.40;29.90
34927;DHT22;21132;48.308;14.274;2023-03-18T15:53:41;21.40;29.40
34927;DHT22;21132;48.308;14.274;2023-03-18T15:56:17;21.30;29.40
34927;DHT22;21132;48.308;14.274;2023-03-18T15:58:44;21.30;29.40
34927;DHT22;21132;48.308;14.274;2023-03-18T16:01:15;21.20;29.50
34927;DHT22;21132;48.308;14.274;2023-03-18T16:03:42;21.20;29.90
34927;DHT22;21132;48.308;14.274;2023-03-18T16:06:08;21.20;29.90
34927;DHT22;21132;48.308;14.274;2023-03-18T16:08:37;21.10;30.00
34927;DHT22;21132;48.308;14.274;2023-03-18T16:11:02;21.10;30.20
34927;DHT22;21132;48.308;14.274;2023-03-18T16:13:32;20.90;30.20
34927;DHT22;21132;48.308;14.274;2023-03-18T16:15:58;20.80;30.60
34927;DHT22;21132;48.308;14.274;2023-03-18T16:18:24;20.60;31.10
34927;DHT22;21132;48.308;14.274;2023-03-18T16:20:50;20.50;31.30
34927;DHT22;21132;48.308;14.274;2023-03-18T16:23:17;20.40;31.60
34927;DHT22;21132;48.308;14.274;2023-03-18T16:25:48;20.20;31.80
34927;DHT22;21132;48.308;14.274;2023-03-18T16:28:23;20.10;32.00
34927;DHT22;21132;48.308;14.274;2023-03-18T16:30:50;20.00;32.20
34927;DHT22;21132;48.308;14.274;2023-03-18T16:33:21;19.90;32.40
34927;DHT22;21132;48.308;14.274;2023-03-18T16:35:58;19.70;32.70
34927;DHT22;21132;48.308;14.274;2023-03-18T16:38:27;19.60;32.90
34927;DHT22;21132;48.308;14.274;2023-03-18T16:40:53;19.50;33.10
34927;DHT22;21132;48.308;14.274;2023-03-18T16:43:22;19.40;33.20
34927;DHT22;21132;48.308;14.274;2023-03-18T16:45:51;19.30;33.40
34927;DHT22;21132;48.308;14.274;2023-03-18T16:48:21;19.20;33.60
34927;DHT22;21132;48.308;14.274;2023-03-18T16:50:49;19.10;33.80
34927;DHT22;21132;48.308;14.274;2023-03-18T16:55:47;18.80;33.90
34927;DHT22;21132;48.308;14.274;2023-03-18T16:58:16;18.80;34.30
34927;DHT22;21132;48.308;14.274;2023-03-18T17:00:44;18.70;34.60
34927;DHT22;21132;48.308;14.274;2023-03-18T17:03:13;18.60;34.80
34927;DHT22;21132;48.308;14.274;2023-03-18T17:05:40;18.40;35.00
34927;DHT22;21132;48.308;14.274;2023-03-18T17:08:08;18.40;35.00
34927;DHT22;21132;48.308;14.274;2023-03-18T17:10:35;18.30;35.10
34927;DHT22;21132;48.308;14.274;2023-03-18T17:13:04;18.20;35.20
34927;DHT22;21132;48.308;14.274;2023-03-18T17:15:34;18.10;35.30
34927;DHT22;21132;48.308;14.274;2023-03-18T17:18:05;18.00;35.30
34927;DHT22;21132;48.308;14.274;2023-03-18T17:20:32;18.00;35.50
34927;DHT22;21132;48.308;14.274;2023-03-18T17:23:01;17.90;35.90
34927;DHT22;21132;48.308;14.274;2023-03-18T17:25:29;17.80;36.00
34927;DHT22;21132;48.308;14.274;2023-03-18T17:27:57;17.80;35.90
34927;DHT22;21132;48.308;14.274;2023-03-18T17:30:31;17.70;35.90
34927;DHT22;21132;48.308;14.274;2023-03-18T17:32:59;17.60;36.00
34927;DHT22;21132;48.308;14.274;2023-03-18T17:35:25;17.50;36.10
34927;DHT22;21132;48.308;14.274;2023-03-18T17:37:53;17.50;36.00
34927;DHT22;21132;48.308;14.274;2023-03-18T17:40:21;17.40;36.00
34927;DHT22;21132;48.308;14.274;2023-03-18T17:42:49;17.40;36.10